tititudorancea.com
Station Historical Data
Daily Summary for May 7, 2018 Units:  Metric    English   Both
« Previous Day
Next Day »
Daily Weekly Monthly Yearly Custom
  High: Low: Average:
Temperature: -17.8 °C 10.2 °C 13.6 °C
Dew Point: -17.8 °C 4.6 °C 7 °C
Humidity: Humidity % 43 % 66 %
Wind Speed: 0 km/h 0 km/h 11.4 km/h
Wind Gust: 0 km/h - -
Wind:- - WNW
Pressure: 0 hPa 1013.4 hPa -
Precipitation: 0 mm    
Historical Graphs
 
 
Ararat weather Find more about Weather in Ararat, AU


 



 


Tabular Data for May 7, 2018
Time Temperature Dew Point Pressure Wind Wind Speed Wind Gust Humidity Rainfall Rate (Hourly)
-17.8 °C -17.8 °C 0 hPa Calm     Humidity % 0 mm
00:03 10.9 °C 8.8 °C 1023.6 hPa Calm     87 % 0 mm
00:08 10.7 °C 8.7 °C 1023.6 hPa North 0.6 km/h 1.6 km/h 87 % 0 mm
00:13 10.6 °C 8.6 °C 1023.2 hPa North 1 km/h 3.7 km/h 87 % 0 mm
00:16 10.6 °C 8.7 °C 1023.2 hPa North 1.8 km/h 3.7 km/h 88 % 0 mm
00:18 10.6 °C 8.7 °C 1023.2 hPa North 1.8 km/h 3.7 km/h 88 % 0 mm
00:23 10.6 °C 8.7 °C 1023.2 hPa North 1.8 km/h 3.7 km/h 88 % 0 mm
00:37 10.5 °C 8.6 °C 1022.9 hPa North 1.8 km/h 5.6 km/h 88 % 0 mm
00:42 10.7 °C 8.8 °C 1022.9 hPa North 2.3 km/h 4.8 km/h 88 % 0 mm
00:47 10.7 °C 8.8 °C 1022.9 hPa North 3.9 km/h 6.4 km/h 88 % 0 mm
00:50 10.7 °C 8.8 °C 1022.9 hPa North 4.2 km/h 4.2 km/h 88 % 0 mm
00:52 10.7 °C 8.8 °C 1022.9 hPa North 4.2 km/h 4.2 km/h 88 % 0 mm
00:57 10.7 °C 8.8 °C 1022.9 hPa North 4.2 km/h 4.2 km/h 88 % 0 mm
01:50 10.8 °C 8.9 °C 1022.9 hPa North 3.9 km/h 7.4 km/h 88 % 0 mm
01:56 10.8 °C 8.9 °C 1022.9 hPa North 3.9 km/h 7.4 km/h 88 % 0 mm
02:39 11.1 °C 8.7 °C 1021.9 hPa North 3.9 km/h 8 km/h 85 % 0 mm
02:44 10.5 °C 8.4 °C 1021.6 hPa North 3.2 km/h 7.4 km/h 87 % 0 mm
02:49 10.5 °C 8.4 °C 1021.2 hPa North 4.5 km/h 7.4 km/h 87 % 0 mm
02:54 10.5 °C 8.4 °C 1021.2 hPa North 4.5 km/h 7.4 km/h 87 % 0 mm
02:59 10.4 °C 8.4 °C 1021.2 hPa North 4.5 km/h 8 km/h 87 % 0 mm
03:04 10.4 °C 8.3 °C 1020.9 hPa North 3.4 km/h 5.6 km/h 87 % 0 mm
03:09 10.4 °C 8.2 °C 1020.9 hPa North 2.3 km/h 6.4 km/h 86 % 0 mm
03:14 10.3 °C 8.3 °C 1020.9 hPa North 3.4 km/h 5.6 km/h 87 % 0 mm
03:19 10.3 °C 8.2 °C 1020.9 hPa North 3.9 km/h 5.6 km/h 87 % 0 mm
03:24 10.3 °C 8.2 °C 1020.5 hPa North 2.7 km/h 5.6 km/h 87 % 0 mm
03:29 10.3 °C 8.2 °C 1020.5 hPa North 2.1 km/h 5.6 km/h 87 % 0 mm
03:34 10.2 °C 8.2 °C 1020.5 hPa North 2.4 km/h 8 km/h 87 % 0 mm
03:39 10.2 °C 8.2 °C 1020.5 hPa North 5.1 km/h 7.4 km/h 87 % 0 mm
03:44 10.2 °C 8.2 °C 1020.5 hPa North 4.8 km/h 7.4 km/h 87 % 0 mm
03:49 10.2 °C 8.2 °C 1020.5 hPa North 5 km/h 7.4 km/h 87 % 0 mm
03:54 10.2 °C 8.2 °C 1020.5 hPa North 5.3 km/h 6.4 km/h 87 % 0 mm
03:59 10.3 °C 8.1 °C 1020.5 hPa North 3.5 km/h 5.6 km/h 86 % 0 mm
04:04 10.3 °C 8.1 °C 1020.2 hPa North 4.3 km/h 5.6 km/h 86 % 0 mm
04:09 10.3 °C 8.1 °C 1020.2 hPa North 4.7 km/h 5.6 km/h 86 % 0 mm
04:11 10.4 °C 8.2 °C 1020.2 hPa North 4 km/h 8 km/h 86 % 0 mm
04:16 10.4 °C 8.2 °C 1020.2 hPa North 4.5 km/h 5.6 km/h 86 % 0 mm
04:21 10.4 °C 8.1 °C 1020.2 hPa North 5.6 km/h 7.4 km/h 85 % 0 mm
04:26 10.5 °C 8.1 °C 1020.2 hPa North 3.9 km/h 5.6 km/h 85 % 0 mm
04:31 10.4 °C 8 °C 1020.2 hPa North 4.8 km/h 6.4 km/h 85 % 0 mm
04:36 10.3 °C 7.9 °C 1020.2 hPa North 6.4 km/h 7.4 km/h 85 % 0 mm
04:41 10.4 °C 8 °C 1020.2 hPa North 6.3 km/h 9.3 km/h 85 % 0 mm
04:46 10.4 °C 8.1 °C 1020.2 hPa North 3.4 km/h 7.4 km/h 85 % 0 mm
04:51 10.5 °C 8.1 °C 1020.2 hPa North 6.3 km/h 7.4 km/h 85 % 0 mm
04:56 10.4 °C 8.1 °C 1019.9 hPa North 5.6 km/h 11.1 km/h 85 % 0 mm
05:01 10.4 °C 7.8 °C 1019.9 hPa North 4.8 km/h 11.1 km/h 84 % 0 mm
05:07 10.4 °C 7.8 °C 1019.9 hPa North 5.3 km/h 5.6 km/h 84 % 0 mm
05:12 10.5 °C 7.9 °C 1019.5 hPa North 3.1 km/h 5.6 km/h 84 % 0 mm
05:17 10.6 °C 7.9 °C 1019.5 hPa North 2.7 km/h 5.6 km/h 84 % 0 mm
05:22 10.7 °C 8.1 °C 1019.5 hPa North 0.3 km/h 5.6 km/h 84 % 0 mm
05:27 10.7 °C 7.9 °C 1019.5 hPa North 6.4 km/h 6.4 km/h 83 % 0 mm
05:32 10.8 °C 8.1 °C 1019.5 hPa North 8.9 km/h 13 km/h 83 % 0 mm
05:37 11.1 °C 8.2 °C 1019.5 hPa North 6.3 km/h 9.3 km/h 82 % 0 mm
05:42 11.4 °C 8.2 °C 1019.2 hPa NNW 6.6 km/h 9.3 km/h 81 % 0 mm
05:47 11.5 °C 8.2 °C 1019.2 hPa North 9.7 km/h 11.1 km/h 80 % 0 mm
05:52 11.5 °C 8.2 °C 1019.2 hPa North 7.7 km/h 12.9 km/h 80 % 0 mm
05:57 11.6 °C 8.1 °C 1019.2 hPa North 10 km/h 17.7 km/h 79 % 0 mm
06:02 11.5 °C 8 °C 1018.8 hPa North 11.1 km/h 22.2 km/h 79 % 0 mm
06:07 11.5 °C 8 °C 1019.2 hPa North 9.3 km/h 16.7 km/h 79 % 0 mm
06:12 11.5 °C 8 °C 1018.8 hPa North 13.2 km/h 17.7 km/h 79 % 0 mm
06:17 11.4 °C 7.9 °C 1018.8 hPa North 9.7 km/h 19.3 km/h 79 % 0 mm
06:22 11.4 °C 8.1 °C 1018.8 hPa North 8 km/h 11.1 km/h 80 % 0 mm
06:27 11.4 °C 8.1 °C 1018.8 hPa North 8.2 km/h 14.8 km/h 80 % 0 mm
06:32 11.3 °C 8 °C 1018.5 hPa North 6.8 km/h 13 km/h 80 % 0 mm
06:37 11.4 °C 7.9 °C 1018.5 hPa North 9.7 km/h 14.8 km/h 79 % 0 mm
06:42 11.4 °C 7.9 °C 1018.5 hPa North 10.9 km/h 18.5 km/h 79 % 0 mm
06:47 11.5 °C 8 °C 1018.5 hPa North 4.3 km/h 13 km/h 79 % 0 mm
06:52 11.6 °C 7.8 °C 1018.5 hPa North 12.1 km/h 18.5 km/h 78 % 0 mm
06:57 11.6 °C 7.9 °C 1018.5 hPa North 6.9 km/h 16.7 km/h 78 % 0 mm
07:02 11.6 °C 7.8 °C 1018.5 hPa North 10 km/h 18.5 km/h 78 % 0 mm
07:07 11.6 °C 7.7 °C 1018.5 hPa North 8 km/h 14.8 km/h 77 % 0 mm
07:12 11.7 °C 7.8 °C 1018.5 hPa North 5.6 km/h 11.1 km/h 77 % 0 mm
07:17 11.6 °C 7.7 °C 1018.2 hPa North 9.7 km/h 13 km/h 77 % 0 mm
07:22 11.7 °C 7.8 °C 1018.5 hPa North 14.2 km/h 18.5 km/h 77 % 0 mm
07:27 11.7 °C 7.6 °C 1018.5 hPa North 7.7 km/h 11.3 km/h 76 % 0 mm
07:32 11.7 °C 7.6 °C 1018.5 hPa North 8.5 km/h 16.7 km/h 76 % 0 mm
07:37 11.7 °C 7.6 °C 1018.5 hPa NNW 8.9 km/h 11.3 km/h 76 % 0 mm
07:42 11.6 °C 7.5 °C 1018.5 hPa North 5.8 km/h 9.3 km/h 76 % 0 mm
07:47 11.6 °C 7.5 °C 1018.8 hPa North 11.3 km/h 18.5 km/h 76 % 0 mm
07:52 11.6 °C 7.4 °C 1018.8 hPa NNE 11.7 km/h 16.7 km/h 76 % 0 mm
07:57 11.5 °C 7.4 °C 1018.8 hPa NNW 8.9 km/h 14.5 km/h 76 % 0 mm
08:02 11.4 °C 7.3 °C 1018.5 hPa North 9.8 km/h 13 km/h 76 % 0 mm
08:07 11.3 °C 7.3 °C 1018.5 hPa North 6.6 km/h 11.3 km/h 76 % 0 mm
08:12 11.3 °C 7.4 °C 1018.5 hPa North 10 km/h 14.8 km/h 77 % 0 mm
08:17 11.2 °C 7.3 °C 1018.5 hPa NNE 10.8 km/h 16.7 km/h 77 % 0 mm
08:22 11.2 °C 7.3 °C 1018.2 hPa North 12.4 km/h 18.5 km/h 77 % 0 mm
08:27 11.2 °C 7.3 °C 1018.2 hPa North 12.4 km/h 18.5 km/h 77 % 0 mm
08:32 11.2 °C 7.2 °C 1017.8 hPa NNW 14.3 km/h 19.3 km/h 76 % 0 mm
08:37 11.3 °C 7.3 °C 1017.8 hPa NNW 8.7 km/h 18.5 km/h 76 % 0 mm
08:43 11.3 °C 7.3 °C 1017.8 hPa NNE 10.9 km/h 16.7 km/h 76 % 0 mm
08:48 11.5 °C 7.2 °C 1017.8 hPa North 9.5 km/h 14.8 km/h 75 % 0 mm
08:49 11.5 °C 7.2 °C 1017.8 hPa North 12.1 km/h 14.8 km/h 75 % 0 mm
08:53 11.5 °C 7.2 °C 1017.8 hPa North 12.1 km/h 14.8 km/h 75 % 0 mm
08:58 11.5 °C 7.2 °C 1017.8 hPa North 12.1 km/h 14.8 km/h 75 % 0 mm
09:24 11.5 °C 7.2 °C 1017.8 hPa North 12.2 km/h 18.5 km/h 75 % 0 mm
09:29 11.9 °C 7.3 °C 1017.8 hPa NNW 14 km/h 22.5 km/h 73 % 0 mm
09:34 12.1 °C 7.2 °C 1017.5 hPa NNW 16.6 km/h 20.4 km/h 72 % 0 mm
09:39 12.1 °C 7.2 °C 1017.5 hPa North 16.4 km/h 20.4 km/h 72 % 0 mm
09:44 12.2 °C 7.3 °C 1017.5 hPa NNW 19.3 km/h 24.1 km/h 72 % 0 mm
09:49 12.2 °C 7.3 °C 1017.5 hPa North 12.9 km/h 22.2 km/h 72 % 0 mm
09:54 12.3 °C 7.2 °C 1017.5 hPa North 22 km/h 27.8 km/h 71 % 0 mm
09:59 12.4 °C 7.3 °C 1017.8 hPa North 16.4 km/h 29.6 km/h 71 % 0 mm
10:04 12.3 °C 7.2 °C 1017.8 hPa North 12.7 km/h 19.3 km/h 71 % 0 mm
10:09 12.4 °C 7.3 °C 1017.5 hPa North 20 km/h 29.6 km/h 71 % 0 mm
10:14 12.4 °C 7.6 °C 1017.5 hPa North 17.9 km/h 22.2 km/h 72 % 0 mm
10:19 12.6 °C 7.7 °C 1017.5 hPa NNW 12.7 km/h 18.5 km/h 72 % 0 mm
10:24 12.8 °C 7.8 °C 1017.2 hPa North 14.2 km/h 25.9 km/h 72 % 0 mm
10:29 13 °C 7.9 °C 1017.2 hPa North 14.3 km/h 22.2 km/h 71 % 0 mm
10:34 13.2 °C 7.8 °C 1017.2 hPa North 15 km/h 25.9 km/h 70 % 0 mm
10:39 13.3 °C 8.2 °C 1017.2 hPa NNW 18.5 km/h 32.2 km/h 71 % 0 mm
10:44 13.7 °C 8.3 °C 1017.2 hPa NNW 16.4 km/h 31.5 km/h 70 % 0 mm
10:49 13.9 °C 8.3 °C 1016.8 hPa NNE 19.8 km/h 29.6 km/h 69 % 0 mm
10:54 14.1 °C 8.4 °C 1016.8 hPa NNE 20.9 km/h 31.5 km/h 69 % 0 mm
10:59 14.2 °C 8.3 °C 1016.8 hPa North 13.8 km/h 24.1 km/h 68 % 0 mm
11:04 14.2 °C 8.4 °C 1016.8 hPa North 15.6 km/h 31.5 km/h 68 % 0 mm
11:09 14.4 °C 8.3 °C 1016.8 hPa North 18.8 km/h 29.6 km/h 67 % 0 mm
11:14 14.7 °C 8.6 °C 1016.8 hPa NNW 25.7 km/h 38.9 km/h 67 % 0 mm
11:19 14.9 °C 8.6 °C 1016.8 hPa North 16.1 km/h 25.9 km/h 66 % 0 mm
11:24 15.2 °C 8.6 °C 1016.8 hPa North 14.2 km/h 29.6 km/h 65 % 0 mm
11:29 15.3 °C 8.5 °C 1016.8 hPa North 20.6 km/h 35.2 km/h 64 % 0 mm
11:34 15.2 °C 8.4 °C 1016.5 hPa North 20.9 km/h 33.8 km/h 64 % 0 mm
11:39 15.1 °C 8.3 °C 1016.5 hPa North 13.8 km/h 29.6 km/h 64 % 0 mm
11:44 15.1 °C 8.3 °C 1016.5 hPa North 14.6 km/h 31.5 km/h 64 % 0 mm
11:49 15.1 °C 8.6 °C 1016.5 hPa NNW 14.6 km/h 24.1 km/h 65 % 0 mm
11:54 15.2 °C 8.4 °C 1016.5 hPa NNW 20.4 km/h 31.5 km/h 64 % 0 mm
11:59 15.2 °C 8.4 °C 1016.1 hPa North 12.7 km/h 31.5 km/h 64 % 0 mm
12:04 15.2 °C 8.4 °C 1016.1 hPa North 16.1 km/h 27.8 km/h 64 % 0 mm
12:09 15.2 °C 8.4 °C 1015.8 hPa North 19.6 km/h 31.5 km/h 64 % 0 mm
12:14 15.2 °C 8.2 °C 1015.8 hPa NNW 21.6 km/h 22.2 km/h 63 % 0 mm
12:19 15.4 °C 8.4 °C 1015.5 hPa North 22 km/h 37 km/h 63 % 0 mm
12:24 15.4 °C 8.2 °C 1015.5 hPa North 17.5 km/h 25.9 km/h 62 % 0 mm
12:29 15.4 °C 8.4 °C 1015.5 hPa North 11.7 km/h 24.1 km/h 63 % 0 mm
12:34 15.5 °C 8.2 °C 1015.5 hPa North 16.9 km/h 29.6 km/h 62 % 0 mm
12:39 15.6 °C 8.3 °C 1015.5 hPa NNW 14.5 km/h 24.1 km/h 62 % 0 mm
12:44 15.8 °C 8.3 °C 1015.1 hPa NNW 23.5 km/h 33.3 km/h 61 % 0 mm
12:49 16.1 °C 8.6 °C 1014.8 hPa North 17.5 km/h 37 km/h 61 % 0 mm
12:55 16.2 °C 8.7 °C 1014.8 hPa North 11.1 km/h 18.5 km/h 61 % 0 mm
13:00 16.2 °C 8.2 °C 1014.8 hPa North 21.2 km/h 31.5 km/h 59 % 0 mm
13:05 16.3 °C 8 °C 1014.8 hPa NNW 26.4 km/h 42.6 km/h 58 % 0 mm
13:10 16.5 °C 8.2 °C 1014.8 hPa NNW 20.9 km/h 38.9 km/h 58 % 0 mm
13:15 16.7 °C 8.2 °C 1014.4 hPa North 20.6 km/h 37 km/h 57 % 0 mm
13:20 16.5 °C 7.9 °C 1014.4 hPa NNW 18.2 km/h 25.9 km/h 57 % 0 mm
13:25 16.7 °C 7.9 °C 1014.1 hPa NNW 18.7 km/h 31.5 km/h 56 % 0 mm
13:30 16.9 °C 8.1 °C 1014.1 hPa NW 19.5 km/h 33.3 km/h 56 % 0 mm
13:35 16.9 °C 7.8 °C 1014.1 hPa NNW 12.2 km/h 22.2 km/h 55 % 0 mm
13:40 16.9 °C 7.6 °C 1014.1 hPa North 20.9 km/h 31.5 km/h 54 % 0 mm
13:45 16.9 °C 7.5 °C 1013.8 hPa North 15.4 km/h 27.8 km/h 54 % 0 mm
13:50 17.1 °C 7.7 °C 1013.4 hPa North 16.3 km/h 22.2 km/h 54 % 0 mm
13:55 17.2 °C 7.6 °C 1013.4 hPa North 14.2 km/h 18.5 km/h 53 % 0 mm
14:00 17.7 °C 7.7 °C 1013.4 hPa NNW 20.4 km/h 22.5 km/h 52 % 0 mm
14:05 17.4 °C 7.2 °C 1013.8 hPa NNW 16.7 km/h 30.6 km/h 51 % 0 mm
14:10 17.2 °C 7.3 °C 1013.8 hPa NW 20.1 km/h 35.2 km/h 52 % 0 mm
14:15 17.2 °C 7.3 °C 1013.8 hPa North 23.5 km/h 42.6 km/h 52 % 0 mm
14:20 17.1 °C 7.1 °C 1013.8 hPa North 17.1 km/h 31.5 km/h 52 % 0 mm
14:25 17 °C 6.8 °C 1013.8 hPa NNW 18.7 km/h 27.8 km/h 51 % 0 mm
14:30 17.1 °C 6.6 °C 1013.8 hPa NNW 27 km/h 38.9 km/h 50 % 0 mm
14:35 17.2 °C 6.7 °C 1013.4 hPa North 17.1 km/h 33.3 km/h 50 % 0 mm
14:40 17.4 °C 6.9 °C 1013.4 hPa NNW 17.5 km/h 31.5 km/h 50 % 0 mm
14:45 17.7 °C 6.9 °C 1013.4 hPa NNW 16.7 km/h 29.6 km/h 49 % 0 mm
14:50 17.6 °C 6.4 °C 1013.8 hPa North 21.9 km/h 29.6 km/h 48 % 0 mm
14:55 17.4 °C 5.9 °C 1013.8 hPa North 21.1 km/h 33.3 km/h 47 % 0 mm
15:00 17.3 °C 5.6 °C 1013.8 hPa NW 27.8 km/h 40.7 km/h 46 % 0 mm
15:05 17.2 °C 5.8 °C 1013.8 hPa NNW 18.7 km/h 27.8 km/h 47 % 0 mm
15:10 17.2 °C 5.8 °C 1013.8 hPa NNW 23.5 km/h 33.3 km/h 47 % 0 mm
15:15 17.2 °C 5.8 °C 1013.8 hPa NW 22 km/h 37 km/h 47 % 0 mm
15:20 17.1 °C 5.7 °C 1013.8 hPa NW 23.3 km/h 35.2 km/h 47 % 0 mm
15:25 17.2 °C 5.8 °C 1013.8 hPa NW 20.8 km/h 35.2 km/h 47 % 0 mm
15:30 17.4 °C 5.9 °C 1013.8 hPa NNW 14.6 km/h 25.9 km/h 47 % 0 mm
15:35 17.8 °C 6.3 °C 1013.8 hPa NNW 20.3 km/h 27.8 km/h 47 % 0 mm
15:40 17.8 °C 6.3 °C 1013.8 hPa NW 15.1 km/h 22.2 km/h 47 % 0 mm
15:45 17.5 °C 6.1 °C 1013.8 hPa NW 12.6 km/h 20.4 km/h 47 % 0 mm
15:50 17.3 °C 5.8 °C 1013.8 hPa NNW 15.3 km/h 31.5 km/h 47 % 0 mm
15:55 17.3 °C 5.8 °C 1013.8 hPa NNW 12.1 km/h 20.4 km/h 47 % 0 mm
16:00 17.4 °C 5.7 °C 1013.8 hPa NNW 24.9 km/h 24.9 km/h 46 % 0 mm
16:05 17.4 °C 4.7 °C 1013.8 hPa NW 19.2 km/h 29.6 km/h 43 % 0 mm
16:10 17.4 °C 5.1 °C 1013.8 hPa NW 10.3 km/h 14.8 km/h 44 % 0 mm
16:15 17.5 °C 5.4 °C 1013.8 hPa NNW 15 km/h 25.9 km/h 45 % 0 mm
16:20 17.7 °C 4.9 °C 1013.8 hPa NW 20.3 km/h 29.6 km/h 43 % 0 mm
16:25 17.5 °C 4.8 °C 1013.8 hPa NNW 23 km/h 25.9 km/h 43 % 0 mm
16:30 17.3 °C 4.9 °C 1013.8 hPa NW 16.9 km/h 29.6 km/h 44 % 0 mm
16:35 17.1 °C 4.7 °C 1013.8 hPa NW 11.6 km/h 25.7 km/h 44 % 0 mm
16:40 17 °C 4.7 °C 1013.8 hPa North 21.6 km/h 33.3 km/h 44 % 0 mm
16:45 16.9 °C 4.6 °C 1013.8 hPa North 22.2 km/h 31.5 km/h 44 % 0 mm
16:50 16.9 °C 4.6 °C 1014.1 hPa NNW 18.3 km/h 22.5 km/h 44 % 0 mm
16:55 16.9 °C 4.6 °C 1014.1 hPa NNW 19.8 km/h 31.5 km/h 44 % 0 mm
17:00 16.9 °C 4.9 °C 1014.1 hPa North 15.9 km/h 31.5 km/h 45 % 0 mm
17:06 16.9 °C 4.9 °C 1014.1 hPa NNW 15.1 km/h 31.5 km/h 45 % 0 mm
17:11 16.9 °C 4.9 °C 1014.1 hPa North 13.7 km/h 31.5 km/h 45 % 0 mm
17:12 16.9 °C 4.9 °C 1014.1 hPa North 12.6 km/h 27.8 km/h 45 % 0 mm
17:17 16.8 °C 4.8 °C 1014.1 hPa NNW 10.6 km/h 24.1 km/h 45 % 0 mm
17:22 16.7 °C 5.1 °C 1013.8 hPa North 12.4 km/h 18.5 km/h 46 % 0 mm
17:27 16.7 °C 5 °C 1013.8 hPa NW 12.9 km/h 25.9 km/h 46 % 0 mm
17:32 16.6 °C 4.9 °C 1013.8 hPa NW 12.9 km/h 24.1 km/h 46 % 0 mm
17:37 16.6 °C 4.9 °C 1013.4 hPa NNW 13.2 km/h 16.7 km/h 46 % 0 mm
17:42 16.5 °C 4.8 °C 1013.4 hPa North 16.1 km/h 18.5 km/h 46 % 0 mm
17:47 16.4 °C 4.8 °C 1013.4 hPa NNW 12.2 km/h 16.7 km/h 46 % 0 mm
17:52 16.3 °C 4.7 °C 1013.4 hPa NW 11.4 km/h 18.5 km/h 46 % 0 mm
17:57 16.3 °C 4.9 °C 1013.4 hPa NW 10.9 km/h 18.5 km/h 47 % 0 mm
18:02 16.2 °C 4.8 °C 1013.8 hPa NNW 10.1 km/h 16.7 km/h 47 % 0 mm
18:08 16.2 °C 4.9 °C 1013.8 hPa North 10.3 km/h 16.7 km/h 47 % 0 mm
18:35 16.2 °C 4.8 °C 1013.8 hPa NNW 10.3 km/h 19.3 km/h 47 % 0 mm
18:40 15.9 °C 4.9 °C 1014.8 hPa North 18.8 km/h 24.1 km/h 48 % 0 mm
18:45 15.9 °C 4.9 °C 1014.8 hPa NW 23.2 km/h 31.5 km/h 48 % 0 mm
18:50 15.9 °C 4.9 °C 1014.8 hPa North 24.5 km/h 31.5 km/h 48 % 0 mm
18:55 15.9 °C 4.9 °C 1014.8 hPa North 16.1 km/h 24.1 km/h 48 % 0 mm
19:01 15.8 °C 4.8 °C 1014.8 hPa NNW 15.9 km/h 24.1 km/h 48 % 0 mm
19:23 15.5 °C 4.8 °C 1015.1 hPa NW 15.4 km/h 24.1 km/h 49 % 0 mm
19:28 15.4 °C 4.7 °C 1015.1 hPa WNW 9.7 km/h 24.1 km/h 49 % 0 mm
19:33 15.4 °C 4.7 °C 1015.1 hPa NW 7.7 km/h 16.7 km/h 49 % 0 mm
19:38 15.3 °C 4.9 °C 1015.5 hPa North 12.4 km/h 18.5 km/h 50 % 0 mm
19:43 15.2 °C 4.8 °C 1015.5 hPa WNW 14 km/h 18.5 km/h 50 % 0 mm
19:48 15.1 °C 4.8 °C 1015.1 hPa NW 8.2 km/h 12.9 km/h 50 % 0 mm
19:53 15.1 °C 5.1 °C 1015.1 hPa NW 15.4 km/h 22.2 km/h 51 % 0 mm
19:58 15.2 °C 5.1 °C 1015.1 hPa NW 16.4 km/h 22.2 km/h 51 % 0 mm
20:03 15.2 °C 5.2 °C 1015.1 hPa North 14.5 km/h 18.5 km/h 51 % 0 mm
20:08 15.1 °C 5.1 °C 1015.1 hPa NW 11.6 km/h 24.1 km/h 51 % 0 mm
20:13 15.1 °C 5.3 °C 1015.1 hPa NW 9.5 km/h 20.4 km/h 52 % 0 mm
20:18 14.9 °C 5.4 °C 1015.1 hPa NW 6 km/h 9.7 km/h 53 % 0 mm
20:23 14.9 °C 5.4 °C 1015.5 hPa NW 4.7 km/h 9.3 km/h 53 % 0 mm
20:28 14.9 °C 5.4 °C 1015.5 hPa NW 8.7 km/h 11.1 km/h 53 % 0 mm
20:33 14.8 °C 5.3 °C 1015.8 hPa NW 3.2 km/h 7.4 km/h 53 % 0 mm
20:38 14.5 °C 5 °C 1015.8 hPa NW 1.3 km/h 4.8 km/h 53 % 0 mm
20:44 14.3 °C 5.1 °C 1015.8 hPa North 3.7 km/h 4.8 km/h 54 % 0 mm
20:49 13.9 °C 5.1 °C 1015.8 hPa NW 3.7 km/h 5.6 km/h 55 % 0 mm
21:02 13.6 °C 5.7 °C 1015.5 hPa NW 6.1 km/h 7.4 km/h 59 % 0 mm
21:07 13.7 °C 5.8 °C 1015.5 hPa NW 15 km/h 16.1 km/h 59 % 0 mm
21:12 14.2 °C 6.3 °C 1015.5 hPa NW 13.8 km/h 20.4 km/h 59 % 0 mm
21:17 14.4 °C 6.2 °C 1015.8 hPa NW 8.9 km/h 14.8 km/h 58 % 0 mm
21:22 14.4 °C 6.2 °C 1016.1 hPa NW 0.8 km/h 3.7 km/h 58 % 0 mm
21:27 14.2 °C 6.1 °C 1016.1 hPa NW 3.2 km/h 6.4 km/h 58 % 0 mm
21:32 14.1 °C 6.4 °C 1016.1 hPa NW 2.4 km/h 5.6 km/h 60 % 0 mm
21:37 13.9 °C 6.3 °C 1016.5 hPa NNE 4.2 km/h 6.4 km/h 60 % 0 mm
21:42 13.8 °C 6.4 °C 1016.1 hPa NNE 3.1 km/h 6.4 km/h 61 % 0 mm
21:47 13.8 °C 6.7 °C 1016.1 hPa NNE 2.9 km/h 9.3 km/h 62 % 0 mm
21:52 14.1 °C 7.2 °C 1016.1 hPa North 8 km/h 14.8 km/h 63 % 0 mm
21:57 14.5 °C 7.3 °C 1016.5 hPa WNW 10.5 km/h 16.7 km/h 62 % 0 mm
22:02 14.3 °C 7.3 °C 1016.5 hPa West 10 km/h 14.8 km/h 63 % 0 mm
22:07 14 °C 7.1 °C 1016.5 hPa West 6.4 km/h 9.7 km/h 63 % 0 mm
22:12 13.9 °C 7.2 °C 1016.5 hPa West 6.3 km/h 8 km/h 64 % 0 mm
22:17 13.8 °C 7.1 °C 1016.8 hPa North 0.8 km/h 3.7 km/h 64 % 0 mm
22:22 13.6 °C 6.7 °C 1016.8 hPa West 4.3 km/h 5.6 km/h 63 % 0 mm
22:27 13.1 °C 6.2 °C 1016.8 hPa North 4.5 km/h 5.6 km/h 63 % 0 mm
22:32 12.8 °C 6.4 °C 1016.8 hPa WNW 4.2 km/h 7.4 km/h 65 % 0 mm
22:37 12.9 °C 6.5 °C 1016.8 hPa North 4.2 km/h 5.6 km/h 65 % 0 mm
22:42 12.9 °C 6.7 °C 1016.8 hPa North 0.5 km/h 1.9 km/h 66 % 0 mm
22:47 12.8 °C 6.8 °C 1016.8 hPa WNW 7.2 km/h 8 km/h 67 % 0 mm
22:52 12.7 °C 6.7 °C 1016.8 hPa WNW 1.1 km/h 5.6 km/h 67 % 0 mm
22:59 12.7 °C 6.9 °C 1016.8 hPa WNW 1.4 km/h 3.2 km/h 68 % 0 mm
23:25 12.6 °C 7.3 °C 1017.5 hPa WNW 3.7 km/h 4.8 km/h 70 % 0 mm
23:30 12.6 °C 7.3 °C 1017.2 hPa North 3.7 km/h 5.6 km/h 70 % 0 mm
23:50 13.6 °C 9.1 °C 1017.5 hPa SW 3.7 km/h 6.4 km/h 74 % 0 mm
23:55 13.7 °C 9.3 °C 1017.5 hPa SSW 11.9 km/h 16.7 km/h 75 % 0 mm
Ararat Weather
Compliments of Weather Underground - 2.25 mb
Click here to send mail.


ABOUT

Live weather data from Ararat, Victoria, Australia, 3377
Data uploaded from Cumulus every 5 minutes to Weather Underground.
This site then downloads the raw data for formatting and display.
Metric and imperial data can be displayed. Graphs and historical data available.
Includes Sun and Moon times and rain image live from BOM.

Check out Ararat Weather on Facebook, Twitter and Google +

Help support ongoing costs by checking out the ads





Follow @AraratWeather